sensor_id;sensor_type;location;lat;lon;timestamp;temperature;humidity
39695;DHT22;25367;-35.352;149.036;2023-03-05T08:37:31;25.60;55.80
39695;DHT22;25367;-35.352;149.036;2023-03-05T08:39:59;25.60;56.40
39695;DHT22;25367;-35.352;149.036;2023-03-05T08:42:28;25.80;56.30
39695;DHT22;25367;-35.352;149.036;2023-03-05T08:44:58;26.00;56.60
39695;DHT22;25367;-35.352;149.036;2023-03-05T08:47:27;26.30;56.10
39695;DHT22;25367;-35.352;149.036;2023-03-05T08:49:57;26.50;55.80
39695;DHT22;25367;-35.352;149.036;2023-03-05T08:52:28;26.80;55.60
39695;DHT22;25367;-35.352;149.036;2023-03-05T08:54:58;27.00;55.40
39695;DHT22;25367;-35.352;149.036;2023-03-05T08:57:27;27.20;55.00
39695;DHT22;25367;-35.352;149.036;2023-03-05T08:59:56;27.30;54.70
39695;DHT22;25367;-35.352;149.036;2023-03-05T09:02:26;27.50;54.50
39695;DHT22;25367;-35.352;149.036;2023-03-05T09:04:55;27.60;54.30
39695;DHT22;25367;-35.352;149.036;2023-03-05T09:07:25;27.70;54.10
39695;DHT22;25367;-35.352;149.036;2023-03-05T09:09:56;27.80;53.70
39695;DHT22;25367;-35.352;149.036;2023-03-05T09:12:25;27.90;54.00
39695;DHT22;25367;-35.352;149.036;2023-03-05T09:14:55;27.90;53.90
39695;DHT22;25367;-35.352;149.036;2023-03-05T09:17:24;27.90;53.80
39695;DHT22;25367;-35.352;149.036;2023-03-05T09:19:54;27.90;53.80
39695;DHT22;25367;-35.352;149.036;2023-03-05T09:22:23;28.00;54.00
39695;DHT22;25367;-35.352;149.036;2023-03-05T09:24:55;27.90;54.10
39695;DHT22;25367;-35.352;149.036;2023-03-05T09:27:24;27.90;54.30
39695;DHT22;25367;-35.352;149.036;2023-03-05T09:29:54;27.90;54.40
39695;DHT22;25367;-35.352;149.036;2023-03-05T09:32:23;27.90;54.30
39695;DHT22;25367;-35.352;149.036;2023-03-05T09:34:53;27.90;54.40
39695;DHT22;25367;-35.352;149.036;2023-03-05T09:37:22;27.90;54.30
39695;DHT22;25367;-35.352;149.036;2023-03-05T09:39:51;28.00;54.30
39695;DHT22;25367;-35.352;149.036;2023-03-05T09:42:33;28.10;54.10
39695;DHT22;25367;-35.352;149.036;2023-03-05T09:45:15;28.20;54.00
39695;DHT22;25367;-35.352;149.036;2023-03-05T09:47:52;28.20;54.00
39695;DHT22;25367;-35.352;149.036;2023-03-05T09:50:35;28.30;53.90
39695;DHT22;25367;-35.352;149.036;2023-03-05T09:55:52;28.40;53.60
39695;DHT22;25367;-35.352;149.036;2023-03-05T09:58:33;28.50;53.60
39695;DHT22;25367;-35.352;149.036;2023-03-05T10:01:05;28.60;53.50
39695;DHT22;25367;-35.352;149.036;2023-03-05T10:03:49;28.60;53.40
39695;DHT22;25367;-35.352;149.036;2023-03-05T10:06:20;28.60;53.30
39695;DHT22;25367;-35.352;149.036;2023-03-05T10:08:55;28.60;53.40
39695;DHT22;25367;-35.352;149.036;2023-03-05T10:11:42;28.60;53.40
39695;DHT22;25367;-35.352;149.036;2023-03-05T10:14:20;28.70;53.20
39695;DHT22;25367;-35.352;149.036;2023-03-05T10:17:18;28.70;53.20
39695;DHT22;25367;-35.352;149.036;2023-03-05T10:20:03;28.80;53.10
39695;DHT22;25367;-35.352;149.036;2023-03-05T10:22:40;28.70;53.00
39695;DHT22;25367;-35.352;149.036;2023-03-05T10:25:21;28.70;53.00
39695;DHT22;25367;-35.352;149.036;2023-03-05T10:27:54;28.80;52.90
39695;DHT22;25367;-35.352;149.036;2023-03-05T10:30:47;28.70;52.80
39695;DHT22;25367;-35.352;149.036;2023-03-05T10:33:24;28.80;52.90
39695;DHT22;25367;-35.352;149.036;2023-03-05T10:36:30;28.70;52.90
39695;DHT22;25367;-35.352;149.036;2023-03-05T10:39:29;28.80;52.90
39695;DHT22;25367;-35.352;149.036;2023-03-05T10:42:06;28.70;53.10
39695;DHT22;25367;-35.352;149.036;2023-03-05T10:44:40;28.70;53.20
39695;DHT22;25367;-35.352;149.036;2023-03-05T10:47:20;28.70;53.10
39695;DHT22;25367;-35.352;149.036;2023-03-05T10:49:51;28.70;53.20
39695;DHT22;25367;-35.352;149.036;2023-03-05T10:52:30;28.60;53.20
39695;DHT22;25367;-35.352;149.036;2023-03-05T10:55:01;28.60;53.10
39695;DHT22;25367;-35.352;149.036;2023-03-05T10:57:32;28.60;53.10
39695;DHT22;25367;-35.352;149.036;2023-03-05T11:00:10;28.60;53.20
39695;DHT22;25367;-35.352;149.036;2023-03-05T11:02:55;28.60;53.30
39695;DHT22;25367;-35.352;149.036;2023-03-05T11:05:39;28.60;53.30
39695;DHT22;25367;-35.352;149.036;2023-03-05T11:08:27;28.50;53.60
39695;DHT22;25367;-35.352;149.036;2023-03-05T11:11:14;28.50;53.50
39695;DHT22;25367;-35.352;149.036;2023-03-05T11:13:56;28.50;53.70
39695;DHT22;25367;-35.352;149.036;2023-03-05T11:16:26;28.50;53.60
39695;DHT22;25367;-35.352;149.036;2023-03-05T11:19:19;28.40;53.70
39695;DHT22;25367;-35.352;149.036;2023-03-05T11:22:05;28.50;53.60
39695;DHT22;25367;-35.352;149.036;2023-03-05T11:24:35;28.40;53.50
39695;DHT22;25367;-35.352;149.036;2023-03-05T11:27:22;28.40;53.60
39695;DHT22;25367;-35.352;149.036;2023-03-05T11:29:52;28.40;53.50
39695;DHT22;25367;-35.352;149.036;2023-03-05T11:32:23;28.30;53.60
39695;DHT22;25367;-35.352;149.036;2023-03-05T11:34:56;28.40;53.70
39695;DHT22;25367;-35.352;149.036;2023-03-05T11:37:27;28.30;53.70
39695;DHT22;25367;-35.352;149.036;2023-03-05T11:40:18;28.40;53.80
39695;DHT22;25367;-35.352;149.036;2023-03-05T11:42:53;28.40;53.60
39695;DHT22;25367;-35.352;149.036;2023-03-05T11:45:25;28.30;53.80
39695;DHT22;25367;-35.352;149.036;2023-03-05T11:47:57;28.30;53.80
39695;DHT22;25367;-35.352;149.036;2023-03-05T11:50:32;28.20;53.80
39695;DHT22;25367;-35.352;149.036;2023-03-05T11:53:04;28.20;53.80
39695;DHT22;25367;-35.352;149.036;2023-03-05T11:55:39;28.20;53.80
39695;DHT22;25367;-35.352;149.036;2023-03-05T11:58:25;28.20;53.90
39695;DHT22;25367;-35.352;149.036;2023-03-05T12:00:56;28.20;53.70
39695;DHT22;25367;-35.352;149.036;2023-03-05T12:03:28;28.20;53.90
39695;DHT22;25367;-35.352;149.036;2023-03-05T12:06:05;28.20;53.90
39695;DHT22;25367;-35.352;149.036;2023-03-05T12:08:40;28.20;53.90
39695;DHT22;25367;-35.352;149.036;2023-03-05T12:11:15;28.10;53.90
39695;DHT22;25367;-35.352;149.036;2023-03-05T12:13:48;28.10;53.80
39695;DHT22;25367;-35.352;149.036;2023-03-05T12:16:25;28.10;54.00
39695;DHT22;25367;-35.352;149.036;2023-03-05T12:21:57;28.10;54.20
39695;DHT22;25367;-35.352;149.036;2023-03-05T12:24:35;28.10;54.40
39695;DHT22;25367;-35.352;149.036;2023-03-05T12:27:33;28.10;54.20
39695;DHT22;25367;-35.352;149.036;2023-03-05T12:30:03;28.10;54.00
39695;DHT22;25367;-35.352;149.036;2023-03-05T12:32:59;28.00;54.40
39695;DHT22;25367;-35.352;149.036;2023-03-05T12:35:31;28.00;54.00
39695;DHT22;25367;-35.352;149.036;2023-03-05T12:38:16;28.00;54.30
39695;DHT22;25367;-35.352;149.036;2023-03-05T12:40:46;28.00;54.30
39695;DHT22;25367;-35.352;149.036;2023-03-05T12:43:29;28.00;54.30
39695;DHT22;25367;-35.352;149.036;2023-03-05T12:48:45;27.90;54.00
39695;DHT22;25367;-35.352;149.036;2023-03-05T12:51:32;27.80;54.50
39695;DHT22;25367;-35.352;149.036;2023-03-05T12:54:36;27.90;54.20
39695;DHT22;25367;-35.352;149.036;2023-03-05T12:57:16;27.90;54.00
39695;DHT22;25367;-35.352;149.036;2023-03-05T12:59:49;27.80;54.30
39695;DHT22;25367;-35.352;149.036;2023-03-05T13:02:27;27.80;54.30
39695;DHT22;25367;-35.352;149.036;2023-03-05T13:05:02;27.80;54.20
39695;DHT22;25367;-35.352;149.036;2023-03-05T13:07:32;27.80;54.30
39695;DHT22;25367;-35.352;149.036;2023-03-05T13:10:03;27.80;54.40
39695;DHT22;25367;-35.352;149.036;2023-03-05T13:12:47;27.80;54.30
39695;DHT22;25367;-35.352;149.036;2023-03-05T13:15:17;27.80;54.40
39695;DHT22;25367;-35.352;149.036;2023-03-05T13:17:53;27.80;55.00
39695;DHT22;25367;-35.352;149.036;2023-03-05T13:20:33;27.80;54.30
39695;DHT22;25367;-35.352;149.036;2023-03-05T13:23:14;27.80;54.30
39695;DHT22;25367;-35.352;149.036;2023-03-05T13:25:55;27.80;54.30
39695;DHT22;25367;-35.352;149.036;2023-03-05T13:28:25;27.70;54.30
39695;DHT22;25367;-35.352;149.036;2023-03-05T13:30:56;27.70;54.30
39695;DHT22;25367;-35.352;149.036;2023-03-05T13:33:27;27.70;54.30
39695;DHT22;25367;-35.352;149.036;2023-03-05T13:35:57;27.70;54.30
39695;DHT22;25367;-35.352;149.036;2023-03-05T13:38:31;27.70;54.30
39695;DHT22;25367;-35.352;149.036;2023-03-05T13:41:17;27.70;54.30
39695;DHT22;25367;-35.352;149.036;2023-03-05T13:43:49;27.70;54.30
39695;DHT22;25367;-35.352;149.036;2023-03-05T13:46:29;27.60;54.30
39695;DHT22;25367;-35.352;149.036;2023-03-05T13:49:17;27.70;54.20
39695;DHT22;25367;-35.352;149.036;2023-03-05T13:51:48;27.60;54.10
39695;DHT22;25367;-35.352;149.036;2023-03-05T13:54:19;27.60;54.50
39695;DHT22;25367;-35.352;149.036;2023-03-05T13:56:55;27.60;54.40
39695;DHT22;25367;-35.352;149.036;2023-03-05T13:59:26;27.60;54.40
39695;DHT22;25367;-35.352;149.036;2023-03-05T14:01:56;27.60;54.40
39695;DHT22;25367;-35.352;149.036;2023-03-05T14:04:27;27.50;54.30
39695;DHT22;25367;-35.352;149.036;2023-03-05T14:07:00;27.50;55.00
39695;DHT22;25367;-35.352;149.036;2023-03-05T14:09:41;27.60;54.50
39695;DHT22;25367;-35.352;149.036;2023-03-05T14:12:24;27.50;54.40
39695;DHT22;25367;-35.352;149.036;2023-03-05T14:14:54;27.50;54.30
39695;DHT22;25367;-35.352;149.036;2023-03-05T14:17:39;27.50;54.50
39695;DHT22;25367;-35.352;149.036;2023-03-05T14:20:20;27.50;54.40
39695;DHT22;25367;-35.352;149.036;2023-03-05T14:22:52;27.50;54.40
39695;DHT22;25367;-35.352;149.036;2023-03-05T14:25:34;27.50;54.60
39695;DHT22;25367;-35.352;149.036;2023-03-05T14:28:15;27.50;54.40
39695;DHT22;25367;-35.352;149.036;2023-03-05T14:30:50;27.40;54.50
39695;DHT22;25367;-35.352;149.036;2023-03-05T14:33:22;27.40;54.60
39695;DHT22;25367;-35.352;149.036;2023-03-05T14:35:52;27.40;54.60
39695;DHT22;25367;-35.352;149.036;2023-03-05T14:38:24;27.40;54.70
39695;DHT22;25367;-35.352;149.036;2023-03-05T14:40:54;27.40;54.70
39695;DHT22;25367;-35.352;149.036;2023-03-05T14:43:25;27.40;54.60
39695;DHT22;25367;-35.352;149.036;2023-03-05T14:45:55;27.40;54.60
39695;DHT22;25367;-35.352;149.036;2023-03-05T14:48:24;27.30;54.50
39695;DHT22;25367;-35.352;149.036;2023-03-05T14:50:54;27.30;54.60
39695;DHT22;25367;-35.352;149.036;2023-03-05T14:53:25;27.30;54.50
39695;DHT22;25367;-35.352;149.036;2023-03-05T14:55:55;27.30;54.60
39695;DHT22;25367;-35.352;149.036;2023-03-05T14:58:28;27.30;54.60
39695;DHT22;25367;-35.352;149.036;2023-03-05T15:00:58;27.30;54.60
39695;DHT22;25367;-35.352;149.036;2023-03-05T15:03:28;27.20;54.50
39695;DHT22;25367;-35.352;149.036;2023-03-05T15:05:58;27.20;54.60
39695;DHT22;25367;-35.352;149.036;2023-03-05T15:08:29;27.20;54.60
39695;DHT22;25367;-35.352;149.036;2023-03-05T15:11:00;27.20;54.60
39695;DHT22;25367;-35.352;149.036;2023-03-05T15:13:31;27.20;54.60
39695;DHT22;25367;-35.352;149.036;2023-03-05T15:16:01;27.20;54.80
39695;DHT22;25367;-35.352;149.036;2023-03-05T15:18:32;27.20;54.80
39695;DHT22;25367;-35.352;149.036;2023-03-05T15:21:02;27.20;54.70
39695;DHT22;25367;-35.352;149.036;2023-03-05T15:23:31;27.10;54.70
39695;DHT22;25367;-35.352;149.036;2023-03-05T15:26:01;27.20;54.80
39695;DHT22;25367;-35.352;149.036;2023-03-05T15:28:33;27.10;54.70
39695;DHT22;25367;-35.352;149.036;2023-03-05T15:31:04;27.10;54.80
39695;DHT22;25367;-35.352;149.036;2023-03-05T15:33:35;27.10;54.80
39695;DHT22;25367;-35.352;149.036;2023-03-05T15:36:05;27.00;54.80
39695;DHT22;25367;-35.352;149.036;2023-03-05T15:38:34;27.10;54.80
39695;DHT22;25367;-35.352;149.036;2023-03-05T15:41:04;27.00;54.80
39695;DHT22;25367;-35.352;149.036;2023-03-05T15:43:36;27.00;54.80
39695;DHT22;25367;-35.352;149.036;2023-03-05T15:46:06;27.00;54.80
39695;DHT22;25367;-35.352;149.036;2023-03-05T15:48:35;27.00;54.80
39695;DHT22;25367;-35.352;149.036;2023-03-05T15:51:07;26.90;54.80
39695;DHT22;25367;-35.352;149.036;2023-03-05T15:53:36;26.90;55.40
39695;DHT22;25367;-35.352;149.036;2023-03-05T15:56:06;26.90;54.80
39695;DHT22;25367;-35.352;149.036;2023-03-05T15:58:37;26.90;54.90
39695;DHT22;25367;-35.352;149.036;2023-03-05T16:01:07;26.90;54.80
39695;DHT22;25367;-35.352;149.036;2023-03-05T16:03:36;26.90;54.90
39695;DHT22;25367;-35.352;149.036;2023-03-05T16:06:06;26.90;54.90
39695;DHT22;25367;-35.352;149.036;2023-03-05T16:08:37;26.90;54.80
39695;DHT22;25367;-35.352;149.036;2023-03-05T16:11:07;26.90;54.90
39695;DHT22;25367;-35.352;149.036;2023-03-05T16:13:39;26.90;55.00
39695;DHT22;25367;-35.352;149.036;2023-03-05T16:16:09;26.90;55.00
39695;DHT22;25367;-35.352;149.036;2023-03-05T16:18:40;26.80;55.00
39695;DHT22;25367;-35.352;149.036;2023-03-05T16:21:10;26.90;55.00
39695;DHT22;25367;-35.352;149.036;2023-03-05T16:23:41;26.80;55.00
39695;DHT22;25367;-35.352;149.036;2023-03-05T16:26:11;26.80;55.00
39695;DHT22;25367;-35.352;149.036;2023-03-05T16:28:42;26.80;55.00
39695;DHT22;25367;-35.352;149.036;2023-03-05T16:31:12;26.80;55.00
39695;DHT22;25367;-35.352;149.036;2023-03-05T16:33:41;26.80;55.00
39695;DHT22;25367;-35.352;149.036;2023-03-05T16:36:24;26.80;55.00
39695;DHT22;25367;-35.352;149.036;2023-03-05T16:38:53;26.80;54.70
39695;DHT22;25367;-35.352;149.036;2023-03-05T16:41:22;26.70;54.60
39695;DHT22;25367;-35.352;149.036;2023-03-05T16:43:54;26.60;55.70
39695;DHT22;25367;-35.352;149.036;2023-03-05T16:46:25;26.70;55.00
39695;DHT22;25367;-35.352;149.036;2023-03-05T16:48:54;26.70;55.60
39695;DHT22;25367;-35.352;149.036;2023-03-05T16:51:24;26.70;55.00
39695;DHT22;25367;-35.352;149.036;2023-03-05T16:53:54;26.70;54.90
39695;DHT22;25367;-35.352;149.036;2023-03-05T16:56:23;26.70;54.90
39695;DHT22;25367;-35.352;149.036;2023-03-05T16:58:55;26.70;54.90
39695;DHT22;25367;-35.352;149.036;2023-03-05T17:01:25;26.70;55.00
39695;DHT22;25367;-35.352;149.036;2023-03-05T17:03:55;26.70;55.00
39695;DHT22;25367;-35.352;149.036;2023-03-05T17:06:27;26.60;54.90
39695;DHT22;25367;-35.352;149.036;2023-03-05T17:08:57;26.70;55.00
39695;DHT22;25367;-35.352;149.036;2023-03-05T17:11:26;26.60;54.90
39695;DHT22;25367;-35.352;149.036;2023-03-05T17:13:57;26.60;55.00
39695;DHT22;25367;-35.352;149.036;2023-03-05T17:16:27;26.60;55.10
39695;DHT22;25367;-35.352;149.036;2023-03-05T17:18:56;26.60;55.10
39695;DHT22;25367;-35.352;149.036;2023-03-05T17:21:26;26.60;55.10
39695;DHT22;25367;-35.352;149.036;2023-03-05T17:23:55;26.60;55.10
39695;DHT22;25367;-35.352;149.036;2023-03-05T17:26:25;26.60;55.20
39695;DHT22;25367;-35.352;149.036;2023-03-05T17:28:56;26.60;55.10
39695;DHT22;25367;-35.352;149.036;2023-03-05T17:31:26;26.50;55.20
39695;DHT22;25367;-35.352;149.036;2023-03-05T17:33:56;26.50;55.20
39695;DHT22;25367;-35.352;149.036;2023-03-05T17:36:25;26.50;55.20
39695;DHT22;25367;-35.352;149.036;2023-03-05T17:38:55;26.50;55.10
39695;DHT22;25367;-35.352;149.036;2023-03-05T17:41:25;26.50;55.10
39695;DHT22;25367;-35.352;149.036;2023-03-05T17:43:56;26.50;55.10
39695;DHT22;25367;-35.352;149.036;2023-03-05T17:46:26;26.50;55.20
39695;DHT22;25367;-35.352;149.036;2023-03-05T17:48:55;26.50;55.10
39695;DHT22;25367;-35.352;149.036;2023-03-05T17:51:24;26.50;55.20
39695;DHT22;25367;-35.352;149.036;2023-03-05T17:53:54;26.50;55.20
39695;DHT22;25367;-35.352;149.036;2023-03-05T17:56:24;26.50;55.20
39695;DHT22;25367;-35.352;149.036;2023-03-05T17:58:53;26.50;55.20
39695;DHT22;25367;-35.352;149.036;2023-03-05T18:01:25;26.50;55.20
39695;DHT22;25367;-35.352;149.036;2023-03-05T18:03:54;26.50;55.20
39695;DHT22;25367;-35.352;149.036;2023-03-05T18:06:24;26.40;54.80
39695;DHT22;25367;-35.352;149.036;2023-03-05T18:08:53;26.30;55.40
39695;DHT22;25367;-35.352;149.036;2023-03-05T18:11:23;26.40;55.40
39695;DHT22;25367;-35.352;149.036;2023-03-05T18:13:52;26.40;55.40
39695;DHT22;25367;-35.352;149.036;2023-03-05T18:16:23;26.40;55.30
39695;DHT22;25367;-35.352;149.036;2023-03-05T18:18:53;26.30;55.30
39695;DHT22;25367;-35.352;149.036;2023-03-05T18:21:23;26.30;55.30
39695;DHT22;25367;-35.352;149.036;2023-03-05T18:23:53;26.30;55.20
39695;DHT22;25367;-35.352;149.036;2023-03-05T18:26:22;26.30;55.20
39695;DHT22;25367;-35.352;149.036;2023-03-05T18:28:52;26.30;55.20
39695;DHT22;25367;-35.352;149.036;2023-03-05T18:31:21;26.30;55.20
39695;DHT22;25367;-35.352;149.036;2023-03-05T18:33:52;26.30;55.10
39695;DHT22;25367;-35.352;149.036;2023-03-05T18:36:22;26.30;55.10
39695;DHT22;25367;-35.352;149.036;2023-03-05T18:38:51;26.30;55.10
39695;DHT22;25367;-35.352;149.036;2023-03-05T18:41:22;26.30;55.10
39695;DHT22;25367;-35.352;149.036;2023-03-05T18:43:52;26.30;55.10
39695;DHT22;25367;-35.352;149.036;2023-03-05T18:46:21;26.30;55.10
39695;DHT22;25367;-35.352;149.036;2023-03-05T18:48:53;26.30;55.10
39695;DHT22;25367;-35.352;149.036;2023-03-05T18:51:23;26.30;55.10
39695;DHT22;25367;-35.352;149.036;2023-03-05T18:53:53;26.30;55.10
39695;DHT22;25367;-35.352;149.036;2023-03-05T18:56:22;26.30;55.10
39695;DHT22;25367;-35.352;149.036;2023-03-05T18:58:52;26.30;55.20
39695;DHT22;25367;-35.352;149.036;2023-03-05T19:01:21;26.20;55.30
39695;DHT22;25367;-35.352;149.036;2023-03-05T19:03:53;26.20;55.30
39695;DHT22;25367;-35.352;149.036;2023-03-05T19:06:22;26.20;55.30
39695;DHT22;25367;-35.352;149.036;2023-03-05T19:08:51;26.20;55.30
39695;DHT22;25367;-35.352;149.036;2023-03-05T19:11:21;26.20;55.40
39695;DHT22;25367;-35.352;149.036;2023-03-05T19:13:51;26.20;55.40
39695;DHT22;25367;-35.352;149.036;2023-03-05T19:16:22;26.20;55.40
39695;DHT22;25367;-35.352;149.036;2023-03-05T19:18:54;26.20;55.50
39695;DHT22;25367;-35.352;149.036;2023-03-05T19:21:24;26.10;55.40
39695;DHT22;25367;-35.352;149.036;2023-03-05T19:23:53;26.10;55.50
39695;DHT22;25367;-35.352;149.036;2023-03-05T19:26:23;26.20;55.60
39695;DHT22;25367;-35.352;149.036;2023-03-05T19:28:52;26.10;55.50
39695;DHT22;25367;-35.352;149.036;2023-03-05T19:31:22;26.10;55.80
39695;DHT22;25367;-35.352;149.036;2023-03-05T19:33:53;26.10;55.50
39695;DHT22;25367;-35.352;149.036;2023-03-05T19:36:22;26.10;55.70
39695;DHT22;25367;-35.352;149.036;2023-03-05T19:38:52;26.10;55.60
39695;DHT22;25367;-35.352;149.036;2023-03-05T19:41:21;26.10;55.60
39695;DHT22;25367;-35.352;149.036;2023-03-05T19:43:51;26.10;55.60
39695;DHT22;25367;-35.352;149.036;2023-03-05T19:46:20;26.10;55.80
39695;DHT22;25367;-35.352;149.036;2023-03-05T19:48:50;26.10;55.60
39695;DHT22;25367;-35.352;149.036;2023-03-05T19:51:22;26.10;55.60
39695;DHT22;25367;-35.352;149.036;2023-03-05T19:53:52;26.10;55.60
39695;DHT22;25367;-35.352;149.036;2023-03-05T19:56:22;26.10;55.60
39695;DHT22;25367;-35.352;149.036;2023-03-05T19:58:51;26.00;55.60
39695;DHT22;25367;-35.352;149.036;2023-03-05T20:01:22;26.00;55.70
39695;DHT22;25367;-35.352;149.036;2023-03-05T20:03:53;26.00;55.60
39695;DHT22;25367;-35.352;149.036;2023-03-05T20:06:25;26.00;55.60
39695;DHT22;25367;-35.352;149.036;2023-03-05T20:08:55;26.00;55.50
39695;DHT22;25367;-35.352;149.036;2023-03-05T20:11:25;26.00;55.60
39695;DHT22;25367;-35.352;149.036;2023-03-05T20:13:55;26.00;55.60
39695;DHT22;25367;-35.352;149.036;2023-03-05T20:16:26;26.00;55.60
39695;DHT22;25367;-35.352;149.036;2023-03-05T20:18:56;26.00;55.60
39695;DHT22;25367;-35.352;149.036;2023-03-05T20:21:30;26.00;55.50
39695;DHT22;25367;-35.352;149.036;2023-03-05T20:24:00;26.00;55.50
39695;DHT22;25367;-35.352;149.036;2023-03-05T20:26:31;25.90;55.20
39695;DHT22;25367;-35.352;149.036;2023-03-05T20:29:01;25.90;55.70
39695;DHT22;25367;-35.352;149.036;2023-03-05T20:31:32;25.90;55.50
39695;DHT22;25367;-35.352;149.036;2023-03-05T20:34:02;26.00;55.50
39695;DHT22;25367;-35.352;149.036;2023-03-05T20:36:33;25.90;55.40
39695;DHT22;25367;-35.352;149.036;2023-03-05T20:39:03;25.90;55.30
39695;DHT22;25367;-35.352;149.036;2023-03-05T20:41:34;26.00;55.40
39695;DHT22;25367;-35.352;149.036;2023-03-05T20:44:04;25.90;55.40
39695;DHT22;25367;-35.352;149.036;2023-03-05T20:46:34;25.90;55.40
39695;DHT22;25367;-35.352;149.036;2023-03-05T20:49:04;25.90;55.40
39695;DHT22;25367;-35.352;149.036;2023-03-05T20:51:36;25.90;55.40
39695;DHT22;25367;-35.352;149.036;2023-03-05T20:54:07;25.90;55.30
39695;DHT22;25367;-35.352;149.036;2023-03-05T20:56:37;25.90;55.40
39695;DHT22;25367;-35.352;149.036;2023-03-05T20:59:07;25.90;55.40
39695;DHT22;25367;-35.352;149.036;2023-03-05T21:01:38;25.90;55.40
39695;DHT22;25367;-35.352;149.036;2023-03-05T21:04:08;25.90;55.40
39695;DHT22;25367;-35.352;149.036;2023-03-05T21:06:39;25.90;55.40
39695;DHT22;25367;-35.352;149.036;2023-03-05T21:09:08;25.80;55.30
39695;DHT22;25367;-35.352;149.036;2023-03-05T21:11:38;25.90;55.40
39695;DHT22;25367;-35.352;149.036;2023-03-05T21:14:07;25.90;56.00
39695;DHT22;25367;-35.352;149.036;2023-03-05T21:16:37;25.80;55.30
39695;DHT22;25367;-35.352;149.036;2023-03-05T21:19:06;25.90;55.40
39695;DHT22;25367;-35.352;149.036;2023-03-05T21:21:38;25.80;55.40
39695;DHT22;25367;-35.352;149.036;2023-03-05T21:24:08;25.90;55.50
39695;DHT22;25367;-35.352;149.036;2023-03-05T21:26:37;25.90;55.50
39695;DHT22;25367;-35.352;149.036;2023-03-05T21:29:07;25.80;55.40
39695;DHT22;25367;-35.352;149.036;2023-03-05T21:31:36;25.80;55.50
39695;DHT22;25367;-35.352;149.036;2023-03-05T21:34:06;25.80;55.50
39695;DHT22;25367;-35.352;149.036;2023-03-05T21:36:35;25.80;55.50
39695;DHT22;25367;-35.352;149.036;2023-03-05T21:39:06;25.90;55.60
39695;DHT22;25367;-35.352;149.036;2023-03-05T21:41:36;25.90;55.60
39695;DHT22;25367;-35.352;149.036;2023-03-05T21:44:05;25.80;55.60
39695;DHT22;25367;-35.352;149.036;2023-03-05T21:46:35;25.80;55.60
39695;DHT22;25367;-35.352;149.036;2023-03-05T21:49:04;25.90;55.70
39695;DHT22;25367;-35.352;149.036;2023-03-05T21:51:34;25.90;55.80
39695;DHT22;25367;-35.352;149.036;2023-03-05T21:54:05;25.90;55.90
39695;DHT22;25367;-35.352;149.036;2023-03-05T21:56:35;25.90;55.90
39695;DHT22;25367;-35.352;149.036;2023-03-05T21:59:04;25.90;56.00
39695;DHT22;25367;-35.352;149.036;2023-03-05T22:01:33;25.90;56.10
39695;DHT22;25367;-35.352;149.036;2023-03-05T22:04:03;25.90;56.10
39695;DHT22;25367;-35.352;149.036;2023-03-05T22:06:32;25.90;55.90
39695;DHT22;25367;-35.352;149.036;2023-03-05T22:09:02;25.90;55.90
39695;DHT22;25367;-35.352;149.036;2023-03-05T22:11:33;25.90;56.00
39695;DHT22;25367;-35.352;149.036;2023-03-05T22:14:03;25.90;56.00
39695;DHT22;25367;-35.352;149.036;2023-03-05T22:16:32;25.90;56.10
39695;DHT22;25367;-35.352;149.036;2023-03-05T22:19:02;25.90;56.00
39695;DHT22;25367;-35.352;149.036;2023-03-05T22:21:31;25.90;56.00
39695;DHT22;25367;-35.352;149.036;2023-03-05T22:24:01;25.90;56.00
39695;DHT22;25367;-35.352;149.036;2023-03-05T22:26:37;25.90;56.00
39695;DHT22;25367;-35.352;149.036;2023-03-05T22:29:07;25.90;55.90
39695;DHT22;25367;-35.352;149.036;2023-03-05T22:31:37;25.90;56.10
39695;DHT22;25367;-35.352;149.036;2023-03-05T22:34:07;25.90;56.10
39695;DHT22;25367;-35.352;149.036;2023-03-05T22:36:36;25.90;56.10
39695;DHT22;25367;-35.352;149.036;2023-03-05T22:39:05;26.00;56.20
39695;DHT22;25367;-35.352;149.036;2023-03-05T22:41:37;26.00;56.20
39695;DHT22;25367;-35.352;149.036;2023-03-05T22:44:08;26.00;56.20
39695;DHT22;25367;-35.352;149.036;2023-03-05T22:46:37;26.00;56.20
39695;DHT22;25367;-35.352;149.036;2023-03-05T22:49:07;26.00;56.20
39695;DHT22;25367;-35.352;149.036;2023-03-05T22:51:36;26.00;56.20
39695;DHT22;25367;-35.352;149.036;2023-03-05T22:54:05;26.00;56.20
39695;DHT22;25367;-35.352;149.036;2023-03-05T22:56:37;26.00;56.20
39695;DHT22;25367;-35.352;149.036;2023-03-05T22:59:07;26.10;56.20
39695;DHT22;25367;-35.352;149.036;2023-03-05T23:01:36;26.10;56.30
39695;DHT22;25367;-35.352;149.036;2023-03-05T23:04:06;26.10;56.30
39695;DHT22;25367;-35.352;149.036;2023-03-05T23:06:35;26.10;56.90
39695;DHT22;25367;-35.352;149.036;2023-03-05T23:09:05;26.10;56.20
39695;DHT22;25367;-35.352;149.036;2023-03-05T23:11:36;26.10;56.20
39695;DHT22;25367;-35.352;149.036;2023-03-05T23:14:05;26.10;56.20
39695;DHT22;25367;-35.352;149.036;2023-03-05T23:16:35;26.20;56.30
39695;DHT22;25367;-35.352;149.036;2023-03-05T23:19:04;26.20;56.30
39695;DHT22;25367;-35.352;149.036;2023-03-05T23:21:34;26.20;56.30
39695;DHT22;25367;-35.352;149.036;2023-03-05T23:24:04;26.20;56.40
39695;DHT22;25367;-35.352;149.036;2023-03-05T23:26:33;26.20;56.30
39695;DHT22;25367;-35.352;149.036;2023-03-05T23:29:05;26.20;56.20
39695;DHT22;25367;-35.352;149.036;2023-03-05T23:31:34;26.30;56.30
39695;DHT22;25367;-35.352;149.036;2023-03-05T23:34:03;26.30;56.30
39695;DHT22;25367;-35.352;149.036;2023-03-05T23:36:33;26.30;56.30
39695;DHT22;25367;-35.352;149.036;2023-03-05T23:39:02;26.30;56.30
39695;DHT22;25367;-35.352;149.036;2023-03-05T23:41:32;26.30;56.20
39695;DHT22;25367;-35.352;149.036;2023-03-05T23:44:03;26.30;56.20
39695;DHT22;25367;-35.352;149.036;2023-03-05T23:46:33;26.30;56.20
39695;DHT22;25367;-35.352;149.036;2023-03-05T23:49:02;26.40;56.30
39695;DHT22;25367;-35.352;149.036;2023-03-05T23:51:31;26.40;56.30
39695;DHT22;25367;-35.352;149.036;2023-03-05T23:54:01;26.40;56.30
39695;DHT22;25367;-35.352;149.036;2023-03-05T23:56:30;26.40;56.20
39695;DHT22;25367;-35.352;149.036;2023-03-05T23:59:00;26.40;56.20
